Time;durP1;ratioP1;P1;durP2;ratioP2;P2;SDS_P1;SDS_P2;PMS_P1;PMS_P2;Temp;Humidity;BMP_temperature;BMP_pressure;BME280_temperature;BME280_humidity;BME280_pressure;Samples;Min_cycle;Max_cycle;Signal;HPM_P1;HPM_P2
2023/06/19 00:01:11;;;;;;;7.88;7.07;;;;;;;23.38;50.59;100716.13;4990155;28;20432;-85
2023/06/19 00:03:37;;;;;;;8.13;6.70;;;;;;;23.35;50.67;100721.81;4992984;28;20057;-85
2023/06/19 00:06:02;;;;;;;13.23;7.30;;;;;;;23.31;50.36;100719.56;4991890;28;20303;-84
2023/06/19 00:08:27;;;;;;;8.10;7.10;;;;;;;23.29;50.60;100717.00;4984993;28;20035;-85
2023/06/19 00:10:53;;;;;;;8.05;6.80;;;;;;;23.31;50.74;100727.66;4985990;28;20034;-84
2023/06/19 00:13:18;;;;;;;9.90;7.45;;;;;;;23.28;50.89;100720.72;4992574;28;20379;-85
2023/06/19 00:15:44;;;;;;;9.07;7.55;;;;;;;23.22;51.03;100731.22;4991725;28;20030;-85
2023/06/19 00:18:10;;;;;;;9.60;7.53;;;;;;;23.16;51.20;100725.41;4985083;28;20393;-84
2023/06/19 00:20:36;;;;;;;8.98;7.75;;;;;;;23.04;51.78;100741.94;4990779;28;20092;-84
2023/06/19 00:23:01;;;;;;;9.45;7.57;;;;;;;23.07;51.72;100747.00;4997773;28;20473;-85
2023/06/19 00:25:26;;;;;;;9.32;7.43;;;;;;;22.98;51.76;100750.56;4986096;28;20034;-84
2023/06/19 00:27:52;;;;;;;8.00;7.20;;;;;;;22.85;52.39;100749.00;4981839;28;20025;-85
2023/06/19 00:30:17;;;;;;;8.00;7.13;;;;;;;22.80;52.59;100754.00;4983036;28;21165;-85
2023/06/19 00:32:46;;;;;;;10.65;7.82;;;;;;;22.74;52.33;100746.44;4983449;28;20033;-84
2023/06/19 00:35:15;;;;;;;9.45;7.90;;;;;;;22.60;53.07;100763.06;4970234;28;20027;-85
2023/06/19 00:37:44;;;;;;;10.52;7.72;;;;;;;22.55;53.35;100768.00;4982001;28;20053;-85
2023/06/19 00:40:31;;;;;;;8.15;6.97;;;;;;;22.42;53.89;100769.13;4983018;28;20026;-84
2023/06/19 00:42:57;;;;;;;7.82;7.03;;;;;;;22.38;53.75;100767.72;4984564;28;20030;-84
2023/06/19 00:45:25;;;;;;;10.07;6.95;;;;;;;22.35;53.88;100770.69;4983469;28;20077;-84
2023/06/19 00:47:55;;;;;;;8.15;7.32;;;;;;;22.23;54.62;100779.88;4976448;28;20121;-85
2023/06/19 00:50:21;;;;;;;8.73;7.82;;;;;;;22.18;54.70;100784.81;4979475;28;20057;-84
2023/06/19 00:52:47;;;;;;;8.00;7.20;;;;;;;22.14;55.08;100788.78;4984784;28;20120;-84
2023/06/19 00:55:14;;;;;;;10.07;7.00;;;;;;;22.09;54.79;100777.53;4984006;28;20030;-85
2023/06/19 00:57:40;;;;;;;7.97;7.20;;;;;;;22.06;55.13;100777.81;4978155;28;20089;-85
2023/06/19 01:00:07;;;;;;;8.90;7.32;;;;;;;22.00;55.44;100781.91;4979686;28;20494;-85
2023/06/19 01:02:32;;;;;;;7.78;6.95;;;;;;;22.01;55.36;100788.13;4983868;28;20038;-85
2023/06/19 01:04:58;;;;;;;7.10;6.40;;;;;;;21.96;55.54;100785.00;4987768;28;20015;-84
2023/06/19 01:07:44;;;;;;;10.13;7.30;;;;;;;22.01;54.48;100793.50;4984718;28;20045;-85
2023/06/19 01:10:13;;;;;;;8.32;6.28;;;;;;;21.90;55.39;100792.63;4984288;28;20065;-84
2023/06/19 01:12:48;;;;;;;7.78;6.35;;;;;;;21.94;55.15;100795.06;4981440;28;20121;-85
2023/06/19 01:15:14;;;;;;;8.35;6.10;;;;;;;21.90;55.47;100794.47;4981102;28;20030;-85
2023/06/19 01:17:40;;;;;;;6.68;5.97;;;;;;;21.87;55.94;100795.63;4981034;28;20034;-84
2023/06/19 01:20:10;;;;;;;8.05;5.88;;;;;;;21.83;56.22;100794.19;4982255;28;20038;-85
2023/06/19 01:22:36;;;;;;;7.93;5.75;;;;;;;21.78;56.12;100792.88;4967725;28;20374;-85
2023/06/19 01:25:01;;;;;;;8.10;5.97;;;;;;;21.81;55.81;100798.81;4987552;28;20086;-85
2023/06/19 01:27:30;;;;;;;6.32;5.30;;;;;;;21.78;56.38;100793.72;4983718;28;20038;-84
2023/06/19 01:29:57;;;;;;;9.23;5.55;;;;;;;21.75;56.55;100794.00;4980015;28;20034;-85
2023/06/19 01:32:45;;;;;;;6.28;5.47;;;;;;;21.75;56.41;100798.53;4984109;28;20030;-85
2023/06/19 01:35:13;;;;;;;7.75;5.65;;;;;;;21.61;57.09;100805.13;4986416;28;20446;-85
2023/06/19 01:37:41;;;;;;;7.10;5.15;;;;;;;21.55;57.74;100803.81;4982672;28;20034;-85
2023/06/19 01:40:09;;;;;;;7.47;4.40;;;;;;;21.51;58.25;100812.28;4977419;28;20035;-84
2023/06/19 01:42:39;;;;;;;6.97;5.25;;;;;;;21.48;58.22;100808.00;4987652;28;20338;-85
2023/06/19 01:45:06;;;;;;;7.38;4.68;;;;;;;21.43;58.50;100804.03;4982925;28;20124;-84
2023/06/19 01:47:31;;;;;;;10.60;3.92;;;;;;;21.46;57.92;100819.91;4980342;28;20469;-85
2023/06/19 01:49:57;;;;;;;5.90;4.50;;;;;;;21.42;58.66;100816.63;4983037;28;20039;-85
2023/06/19 01:52:23;;;;;;;5.70;4.43;;;;;;;21.39;58.81;100822.25;4985055;28;20030;-85
2023/06/19 01:54:48;;;;;;;6.65;4.50;;;;;;;21.36;59.47;100812.63;4983248;28;20498;-85
2023/06/19 01:57:14;;;;;;;5.57;4.50;;;;;;;21.29;59.82;100824.00;4987296;28;20116;-85
2023/06/19 01:59:39;;;;;;;4.82;4.35;;;;;;;21.25;60.51;100820.72;4988720;28;20406;-85
2023/06/19 02:02:06;;;;;;;6.45;4.53;;;;;;;21.22;60.70;100831.75;4982782;28;20034;-84
2023/06/19 02:04:31;;;;;;;4.65;3.60;;;;;;;21.18;60.30;100832.13;4988191;28;20037;-85
2023/06/19 02:06:57;;;;;;;5.95;4.38;;;;;;;21.17;60.27;100830.41;4992927;28;20031;-85
2023/06/19 02:09:22;;;;;;;5.88;4.50;;;;;;;21.17;60.87;100828.59;4971469;28;20030;-85
2023/06/19 02:11:47;;;;;;;5.65;3.90;;;;;;;21.08;61.31;100837.44;4971657;28;20030;-85
2023/06/19 02:14:12;;;;;;;5.63;3.70;;;;;;;21.02;61.10;100833.41;4991595;28;20030;-85
2023/06/19 02:16:38;;;;;;;5.07;3.47;;;;;;;21.07;61.66;100846.47;4983442;28;20123;-85
2023/06/19 02:19:03;;;;;;;5.72;3.33;;;;;;;21.20;61.03;100851.66;4983131;28;20038;-84
2023/06/19 02:21:28;;;;;;;6.50;3.85;;;;;;;21.11;61.66;100839.84;4985592;28;20386;-85
2023/06/19 02:23:54;;;;;;;6.25;3.75;;;;;;;21.07;61.99;100838.41;4984357;28;20038;-85
2023/06/19 02:26:19;;;;;;;4.65;3.30;;;;;;;21.06;61.68;100839.38;4983041;28;20590;-85
2023/06/19 02:28:44;;;;;;;4.80;3.10;;;;;;;21.00;62.47;100854.19;4977091;28;20030;-85
2023/06/19 02:31:10;;;;;;;4.10;3.20;;;;;;;20.84;63.20;100853.75;4981508;28;20125;-85
2023/06/19 02:33:35;;;;;;;4.57;2.83;;;;;;;20.83;63.32;100844.00;4983670;28;20033;-85
2023/06/19 02:36:01;;;;;;;4.18;2.78;;;;;;;20.78;63.55;100847.06;4989196;28;20030;-85
2023/06/19 02:38:29;;;;;;;5.72;3.10;;;;;;;20.71;63.87;100850.41;4982874;28;20371;-85
2023/06/19 02:40:57;;;;;;;3.30;2.92;;;;;;;20.65;64.20;100849.06;4983855;28;20036;-85
2023/06/19 02:43:22;;;;;;;4.60;2.70;;;;;;;20.56;64.71;100848.00;4969397;28;20030;-85
2023/06/19 02:45:47;;;;;;;3.83;2.97;;;;;;;20.54;64.72;100843.72;4983591;28;20092;-85
2023/06/19 02:48:13;;;;;;;4.80;3.15;;;;;;;20.52;65.04;100845.69;4980122;28;20026;-85
2023/06/19 02:50:38;;;;;;;4.97;2.95;;;;;;;20.48;65.29;100838.88;4977748;28;20497;-84
2023/06/19 02:53:03;;;;;;;5.22;3.35;;;;;;;20.44;65.66;100848.13;4982882;28;20041;-86
2023/06/19 02:55:29;;;;;;;4.10;3.28;;;;;;;20.37;65.89;100837.84;4980489;28;20034;-85
2023/06/19 02:57:54;;;;;;;4.97;2.90;;;;;;;20.36;65.65;100849.56;4980605;28;20109;-84
2023/06/19 03:00:19;;;;;;;3.72;3.05;;;;;;;20.34;65.88;100853.38;4976610;28;20050;-84
2023/06/19 03:02:45;;;;;;;3.65;2.72;;;;;;;20.29;66.22;100847.53;4981973;28;20349;-85
2023/06/19 03:05:12;;;;;;;4.30;2.97;;;;;;;20.24;65.88;100855.97;4984017;28;20029;-85
2023/06/19 03:07:37;;;;;;;3.78;2.97;;;;;;;20.22;66.90;100860.56;4982546;28;20054;-84
2023/06/19 03:10:03;;;;;;;6.03;3.00;;;;;;;20.24;66.50;100863.16;4983689;28;20041;-85
2023/06/19 03:12:28;;;;;;;4.57;3.13;;;;;;;20.24;66.87;100876.59;4979631;28;20497;-85
2023/06/19 03:14:54;;;;;;;3.70;2.70;;;;;;;20.19;66.50;100865.34;4976340;28;20077;-85
2023/06/19 03:17:19;;;;;;;3.53;3.10;;;;;;;20.17;67.08;100869.97;4978905;28;20565;-85
2023/06/19 03:19:44;;;;;;;3.88;3.42;;;;;;;20.14;66.63;100881.81;4975678;28;20073;-85
2023/06/19 03:22:09;;;;;;;4.63;3.08;;;;;;;20.08;67.63;100880.47;4983006;28;20029;-86
2023/06/19 03:24:35;;;;;;;4.35;3.00;;;;;;;20.07;67.22;100883.28;4981760;28;20080;-85
2023/06/19 03:27:00;;;;;;;3.67;2.95;;;;;;;20.03;67.74;100882.66;4977560;28;20033;-85
2023/06/19 03:29:25;;;;;;;5.05;3.13;;;;;;;20.04;66.23;100886.19;4977620;28;20040;-85
2023/06/19 03:31:50;;;;;;;3.17;2.80;;;;;;;19.99;67.57;100878.50;4958846;28;20722;-85
2023/06/19 03:34:16;;;;;;;4.65;3.00;;;;;;;19.93;68.26;100881.69;4982592;28;20030;-85
2023/06/19 03:36:41;;;;;;;5.80;3.45;;;;;;;19.87;68.94;100885.72;4965864;28;20026;-85
2023/06/19 03:39:06;;;;;;;3.92;2.90;;;;;;;19.94;68.76;100885.22;4974871;28;20041;-85
2023/06/19 03:41:31;;;;;;;6.63;3.60;;;;;;;19.92;69.09;100887.19;4979306;28;20023;-85
2023/06/19 03:43:57;;;;;;;4.57;3.47;;;;;;;19.98;68.74;100887.53;4980616;28;20377;-85
2023/06/19 03:46:22;;;;;;;6.53;3.63;;;;;;;19.93;69.65;100895.09;4979211;28;20359;-85
2023/06/19 03:48:47;;;;;;;5.20;3.85;;;;;;;19.92;69.35;100900.59;4981293;28;20022;-84
2023/06/19 03:51:12;;;;;;;5.63;3.83;;;;;;;19.94;70.05;100909.38;4985527;28;20039;-85
2023/06/19 03:53:38;;;;;;;4.53;3.60;;;;;;;19.97;69.80;100910.00;4979733;28;20129;-85
2023/06/19 03:56:03;;;;;;;5.13;3.80;;;;;;;19.97;69.68;100917.19;4986200;28;20134;-85
2023/06/19 03:58:28;;;;;;;3.97;3.47;;;;;;;20.09;69.59;100913.53;4978145;28;20092;-85
2023/06/19 04:00:54;;;;;;;4.47;3.50;;;;;;;20.14;69.71;100916.69;4985975;28;20041;-85
2023/06/19 04:03:19;;;;;;;7.03;4.00;;;;;;;20.24;68.50;100915.03;4988907;28;20026;-85
2023/06/19 04:05:44;;;;;;;5.47;3.58;;;;;;;20.28;69.10;100919.13;4984596;28;20034;-85
2023/06/19 04:08:09;;;;;;;6.75;4.60;;;;;;;20.37;68.97;100921.09;4985423;28;20097;-85
2023/06/19 04:10:35;;;;;;;6.63;4.00;;;;;;;20.40;68.96;100920.00;4986102;28;20022;-85
2023/06/19 04:13:00;;;;;;;4.35;3.88;;;;;;;20.37;69.31;100925.63;4980402;28;20022;-85
2023/06/19 04:15:25;;;;;;;5.38;4.05;;;;;;;20.36;69.48;100922.06;4985961;28;20030;-85
2023/06/19 04:17:51;;;;;;;6.22;3.70;;;;;;;20.42;69.11;100930.63;4982554;28;20077;-85
2023/06/19 04:20:16;;;;;;;5.88;3.95;;;;;;;20.49;68.88;100937.25;4981398;28;20474;-84
2023/06/19 04:22:41;;;;;;;5.10;4.07;;;;;;;20.49;69.32;100931.88;4985610;28;20030;-84
2023/06/19 04:25:07;;;;;;;4.75;4.13;;;;;;;20.50;69.13;100942.50;4985774;28;20491;-83
2023/06/19 04:27:33;;;;;;;5.07;4.55;;;;;;;20.44;69.80;100944.78;4991960;28;20449;-83
2023/06/19 04:29:59;;;;;;;5.20;4.05;;;;;;;20.48;69.04;100946.28;4981068;28;20022;-84
2023/06/19 04:32:24;;;;;;;5.35;4.75;;;;;;;20.54;69.33;100954.69;4984766;28;20034;-83
2023/06/19 04:34:49;;;;;;;5.35;4.57;;;;;;;20.50;69.58;100949.69;4985728;28;20125;-84
2023/06/19 04:37:18;;;;;;;6.85;4.35;;;;;;;20.53;69.05;100955.69;4987077;28;20453;-84
2023/06/19 04:39:44;;;;;;;8.27;5.10;;;;;;;20.52;69.83;100967.41;4986092;28;20041;-83
2023/06/19 04:42:10;;;;;;;7.05;4.60;;;;;;;20.52;69.41;100964.72;4987168;28;20030;-84
2023/06/19 04:44:35;;;;;;;6.45;4.45;;;;;;;20.51;70.31;100964.84;4980330;28;20369;-83
2023/06/19 04:47:03;;;;;;;8.45;4.53;;;;;;;20.42;70.18;100962.84;4982549;28;20030;-84
2023/06/19 04:49:32;;;;;;;6.00;4.35;;;;;;;20.50;69.79;100971.19;4979107;28;20085;-84
2023/06/19 04:51:58;;;;;;;7.15;4.70;;;;;;;20.57;69.76;100972.41;4978608;28;20687;-84
2023/06/19 04:54:24;;;;;;;5.95;4.78;;;;;;;20.56;69.32;100974.25;4983653;28;20030;-83
2023/06/19 04:56:49;;;;;;;8.95;5.18;;;;;;;20.59;69.85;100979.38;4981277;28;20520;-83
2023/06/19 04:59:17;;;;;;;7.28;5.70;;;;;;;20.64;70.08;100971.78;4978303;28;20140;-84
2023/06/19 05:01:43;;;;;;;6.72;4.68;;;;;;;20.69;68.65;100966.03;4982284;28;20222;-84
2023/06/19 05:04:10;;;;;;;8.30;5.63;;;;;;;20.76;69.22;100975.34;4986089;28;20523;-84
2023/06/19 05:06:35;;;;;;;5.57;4.78;;;;;;;20.84;68.98;100980.94;4989775;28;20050;-83
2023/06/19 05:09:00;;;;;;;7.10;5.50;;;;;;;20.86;68.46;100976.28;4981053;28;20034;-84
2023/06/19 05:11:25;;;;;;;7.97;4.80;;;;;;;20.84;68.70;100970.19;4988448;28;20073;-84
2023/06/19 05:13:51;;;;;;;10.32;5.40;;;;;;;20.85;69.50;100987.16;4983220;28;20478;-84
2023/06/19 05:16:19;;;;;;;6.75;4.72;;;;;;;20.93;68.82;100973.09;4968406;28;20042;-84
2023/06/19 05:18:44;;;;;;;7.57;4.80;;;;;;;20.96;68.38;100980.91;4982505;28;20134;-84
2023/06/19 05:21:10;;;;;;;5.90;4.43;;;;;;;20.96;68.06;100978.22;4981934;28;20113;-83
2023/06/19 05:23:35;;;;;;;9.32;5.57;;;;;;;21.01;68.96;100984.09;4975407;28;20110;-84
2023/06/19 05:26:00;;;;;;;6.60;5.03;;;;;;;21.08;68.90;100986.16;4985588;28;20022;-84
2023/06/19 05:28:25;;;;;;;6.43;5.63;;;;;;;21.03;68.94;100991.06;4985679;28;20030;-84
2023/06/19 05:30:51;;;;;;;6.75;5.70;;;;;;;21.05;68.30;100994.47;4980603;28;20117;-84
2023/06/19 05:33:17;;;;;;;7.03;5.50;;;;;;;21.08;68.53;100994.22;4984530;28;20509;-84
2023/06/19 05:35:43;;;;;;;6.80;5.38;;;;;;;21.16;68.21;100993.56;4981684;28;20026;-83
2023/06/19 05:38:08;;;;;;;7.20;4.88;;;;;;;21.22;68.50;100994.91;4985863;28;20031;-84
2023/06/19 05:40:34;;;;;;;9.43;5.63;;;;;;;21.22;68.24;100997.63;4984851;28;20971;-84
2023/06/19 05:42:59;;;;;;;8.18;5.60;;;;;;;21.26;67.19;100990.97;4989007;28;20076;-84
2023/06/19 05:45:24;;;;;;;9.70;6.07;;;;;;;21.36;67.02;100990.13;4968458;28;20026;-83
2023/06/19 05:47:50;;;;;;;8.40;6.22;;;;;;;21.36;66.41;100998.22;4983085;28;20247;-84
2023/06/19 05:50:15;;;;;;;7.40;6.18;;;;;;;21.40;66.79;101004.16;4985885;28;20057;-83
2023/06/19 05:52:43;;;;;;;7.07;5.38;;;;;;;21.44;66.68;100997.53;4983119;28;20041;-84
2023/06/19 05:55:09;;;;;;;8.75;6.28;;;;;;;21.35;67.28;101011.75;4986046;28;20022;-84
2023/06/19 05:57:34;;;;;;;8.43;5.93;;;;;;;21.42;66.98;101009.44;4986408;28;20038;-84
2023/06/19 05:59:59;;;;;;;8.32;6.40;;;;;;;21.46;66.57;101000.13;4988523;28;20026;-84
2023/06/19 06:02:25;;;;;;;12.07;6.93;;;;;;;21.51;66.79;100992.53;4971653;28;20034;-83
2023/06/19 06:04:51;;;;;;;7.93;6.25;;;;;;;21.55;66.32;101007.44;4985940;28;20390;-83
2023/06/19 06:07:16;;;;;;;7.63;6.80;;;;;;;21.65;65.73;101008.38;4985305;28;20061;-84
2023/06/19 06:09:41;;;;;;;7.47;6.65;;;;;;;21.72;65.26;101011.38;4979097;28;20340;-83
2023/06/19 06:12:07;;;;;;;7.60;6.63;;;;;;;21.80;65.19;101008.91;4980019;28;20421;-83
2023/06/19 06:14:32;;;;;;;9.13;6.90;;;;;;;21.85;64.31;101018.28;4969514;28;20041;-83
2023/06/19 06:16:58;;;;;;;7.53;6.72;;;;;;;21.96;63.67;101030.81;4987197;28;20042;-83
2023/06/19 06:19:23;;;;;;;7.35;6.47;;;;;;;22.04;63.37;101028.34;4987774;28;20081;-83
2023/06/19 06:21:50;;;;;;;9.77;7.07;;;;;;;22.21;63.43;101032.31;4985211;28;20034;-84
2023/06/19 06:24:15;;;;;;;8.00;7.05;;;;;;;22.17;62.36;101038.09;4990062;28;20486;-83
2023/06/19 06:26:41;;;;;;;7.88;6.53;;;;;;;22.34;61.57;101041.06;4983061;28;20042;-83
2023/06/19 06:29:07;;;;;;;9.35;8.35;;;;;;;22.40;60.14;101043.22;4983832;28;20060;-84
2023/06/19 06:31:33;;;;;;;10.88;8.45;;;;;;;22.55;59.83;101041.03;4983514;28;20030;-84
2023/06/19 06:33:59;;;;;;;12.75;8.70;;;;;;;22.55;59.37;101049.09;4979368;28;20030;-83
2023/06/19 06:36:24;;;;;;;8.95;8.02;;;;;;;22.60;59.13;101044.16;4986860;28;20026;-83
2023/06/19 06:38:50;;;;;;;14.63;9.02;;;;;;;22.69;58.92;101057.81;4983000;28;20092;-84
2023/06/19 06:41:15;;;;;;;10.15;8.77;;;;;;;22.84;58.33;101054.63;4980590;28;20046;-83
2023/06/19 06:43:42;;;;;;;10.45;9.35;;;;;;;22.99;57.50;101059.66;4987725;28;20022;-84
2023/06/19 06:46:08;;;;;;;11.60;8.60;;;;;;;23.33;56.06;101071.00;4962698;28;20049;-83
2023/06/19 06:48:33;;;;;;;13.80;9.52;;;;;;;23.36;55.84;101073.41;4982328;28;20069;-84
2023/06/19 06:51:01;;;;;;;10.20;8.90;;;;;;;23.43;55.28;101080.81;4982516;28;20030;-84
2023/06/19 06:53:30;;;;;;;12.43;10.30;;;;;;;23.42;54.32;101073.72;4979293;28;20101;-84
2023/06/19 06:55:55;;;;;;;11.00;8.93;;;;;;;23.09;55.01;101077.63;4984989;28;20032;-83
2023/06/19 06:58:20;;;;;;;10.02;9.02;;;;;;;23.13;55.01;101072.81;4982379;28;20030;-84
2023/06/19 07:00:47;;;;;;;11.65;8.77;;;;;;;23.32;54.50;101078.25;4978792;28;20030;-83
2023/06/19 07:03:13;;;;;;;10.23;9.18;;;;;;;23.36;54.94;101073.41;4979898;28;20034;-84
2023/06/19 07:05:38;;;;;;;11.80;9.43;;;;;;;23.33;54.95;101082.66;4979737;28;20077;-83
2023/06/19 07:08:03;;;;;;;10.63;8.93;;;;;;;23.49;55.02;101082.09;4980906;28;20125;-84
2023/06/19 07:10:29;;;;;;;11.23;10.02;;;;;;;23.44;55.15;101084.38;4965302;28;20516;-84
2023/06/19 07:12:55;;;;;;;11.20;9.93;;;;;;;23.49;54.20;101097.44;4981320;28;20037;-83
2023/06/19 07:15:20;;;;;;;11.52;10.32;;;;;;;23.54;55.24;101095.19;4978110;28;20417;-83
2023/06/19 07:17:46;;;;;;;10.48;9.38;;;;;;;23.61;54.33;101093.66;4976098;28;20084;-84
2023/06/19 07:20:12;;;;;;;13.52;10.18;;;;;;;23.70;54.92;101100.94;4980482;28;20034;-84
2023/06/19 07:22:37;;;;;;;13.07;10.30;;;;;;;24.03;53.84;101104.22;4981308;28;20049;-84
2023/06/19 07:25:03;;;;;;;11.70;10.57;;;;;;;24.11;52.61;101104.38;4982054;28;20036;-84
2023/06/19 07:27:29;;;;;;;10.85;9.68;;;;;;;24.06;51.48;101114.72;4981110;28;20117;-84
2023/06/19 07:29:54;;;;;;;13.90;11.15;;;;;;;23.98;52.17;101115.44;4977116;28;20034;-84
2023/06/19 07:32:20;;;;;;;12.70;11.43;;;;;;;24.37;51.43;101110.06;4979367;28;20505;-84
2023/06/19 07:34:45;;;;;;;11.25;10.07;;;;;;;24.96;50.05;101116.19;4989402;28;20034;-84
2023/06/19 07:37:17;;;;;;;10.90;9.73;;;;;;;25.26;48.34;101118.63;4990420;28;20661;-85
2023/06/19 07:39:44;;;;;;;12.10;10.55;;;;;;;25.53;47.66;101127.75;4981878;28;20030;-83
2023/06/19 07:42:10;;;;;;;12.05;10.85;;;;;;;25.57;47.31;101134.56;4981400;28;20426;-84
2023/06/19 07:44:35;;;;;;;11.05;9.40;;;;;;;26.03;46.07;101128.13;4980070;28;20026;-84
2023/06/19 07:47:01;;;;;;;9.82;8.65;;;;;;;26.38;46.24;101113.69;4983889;28;20041;-83
2023/06/19 07:49:26;;;;;;;11.07;9.55;;;;;;;26.26;45.20;101125.78;4982843;28;20030;-84
2023/06/19 07:51:51;;;;;;;9.53;8.23;;;;;;;26.40;45.03;101127.94;4982073;28;20050;-83
2023/06/19 07:54:16;;;;;;;10.47;7.63;;;;;;;26.65;45.04;101114.59;4976672;28;20725;-84
2023/06/19 07:56:42;;;;;;;10.20;8.02;;;;;;;26.85;43.98;101112.50;4978808;28;20282;-85
2023/06/19 07:59:07;;;;;;;10.90;7.90;;;;;;;26.98;43.92;101112.91;4983524;28;20708;-84
2023/06/19 08:01:32;;;;;;;9.97;7.90;;;;;;;27.16;43.43;101118.28;4983358;28;20785;-84
2023/06/19 08:03:57;;;;;;;9.38;7.72;;;;;;;27.14;44.28;101109.44;4983315;28;20339;-85
2023/06/19 08:06:23;;;;;;;8.97;8.07;;;;;;;27.26;43.44;101113.59;4985258;28;20050;-84
2023/06/19 08:08:48;;;;;;;13.43;8.30;;;;;;;27.07;44.87;101114.66;4992686;28;20816;-84
2023/06/19 08:11:13;;;;;;;11.30;8.43;;;;;;;26.80;45.15;101114.84;4983557;28;20035;-85
2023/06/19 08:13:38;;;;;;;9.73;7.85;;;;;;;26.59;45.34;101117.94;4986573;28;20301;-84
2023/06/19 08:16:04;;;;;;;9.13;8.13;;;;;;;26.74;44.75;101121.75;4986377;28;20038;-83
2023/06/19 08:18:30;;;;;;;7.63;6.82;;;;;;;26.45;44.97;101119.38;4987215;28;20613;-81
2023/06/19 08:20:55;;;;;;;11.67;7.80;;;;;;;26.56;44.96;101129.09;4985090;28;20061;-82
2023/06/19 08:23:20;;;;;;;9.25;6.70;;;;;;;27.21;44.48;101124.94;4989523;28;20628;-82
2023/06/19 08:25:46;;;;;;;10.57;7.90;;;;;;;27.29;43.87;101134.97;4989811;28;20041;-82
2023/06/19 08:28:11;;;;;;;9.32;7.63;;;;;;;27.37;43.30;101121.44;4988948;28;20445;-81
2023/06/19 08:30:36;;;;;;;8.57;7.13;;;;;;;27.28;42.75;101137.84;4987693;28;20049;-81
2023/06/19 08:33:01;;;;;;;8.80;7.85;;;;;;;27.85;42.43;101124.50;4988025;28;20779;-81
2023/06/19 08:35:27;;;;;;;9.43;8.07;;;;;;;27.65;42.99;101124.75;4988829;28;20031;-81
2023/06/19 08:37:52;;;;;;;9.32;8.32;;;;;;;27.64;42.01;101139.34;4991768;28;20030;-81
2023/06/19 08:40:19;;;;;;;8.98;7.47;;;;;;;27.29;42.06;101134.97;4973846;28;20041;-81
2023/06/19 08:42:44;;;;;;;8.70;7.90;;;;;;;26.69;44.31;101143.09;4988855;28;20237;-82
2023/06/19 08:45:10;;;;;;;9.02;8.10;;;;;;;26.60;43.98;101153.03;4989560;28;20037;-82
2023/06/19 08:47:35;;;;;;;13.55;8.48;;;;;;;26.58;44.74;101154.19;4987631;28;20030;-81
2023/06/19 08:50:00;;;;;;;9.70;7.80;;;;;;;26.43;43.93;101148.47;4984667;28;20034;-81
2023/06/19 08:52:26;;;;;;;10.30;7.68;;;;;;;26.33;44.00;101161.25;4968047;28;20565;-81
2023/06/19 08:54:51;;;;;;;9.93;7.55;;;;;;;26.89;45.42;101154.56;4987030;28;20026;-81
2023/06/19 08:57:17;;;;;;;12.60;7.68;;;;;;;27.43;43.00;101157.94;4985750;28;20113;-80
2023/06/19 08:59:50;;;;;;;11.15;8.02;;;;;;;27.53;43.08;101165.97;4987025;28;20033;-81
2023/06/19 09:02:15;;;;;;;8.00;7.00;;;;;;;27.68;43.06;101172.47;4986233;28;20552;-81
2023/06/19 09:04:41;;;;;;;10.80;8.05;;;;;;;27.43;42.05;101176.97;4986431;28;20018;-81
2023/06/19 09:07:08;;;;;;;10.17;7.70;;;;;;;27.31;43.42;101176.38;4986298;28;20395;-81
2023/06/19 09:09:34;;;;;;;8.85;7.30;;;;;;;27.55;43.16;101172.06;4987499;28;20288;-82
2023/06/19 09:12:01;;;;;;;9.85;7.60;;;;;;;27.66;42.47;101174.50;4989880;28;20030;-81
2023/06/19 09:14:39;;;;;;;8.82;8.02;;;;;;;27.55;42.46;101181.06;4987015;28;20031;-82
2023/06/19 09:17:11;;;;;;;10.68;7.93;;;;;;;27.03;43.45;101178.41;4987934;28;20070;-81
2023/06/19 09:19:37;;;;;;;15.40;7.78;;;;;;;26.82;43.02;101173.38;4989792;28;20030;-82
2023/06/19 09:22:04;;;;;;;10.88;7.93;;;;;;;27.21;43.75;101175.66;4984876;28;20569;-81
2023/06/19 09:24:38;;;;;;;7.38;6.68;;;;;;;27.56;43.13;101181.91;4983068;28;20485;-81
2023/06/19 09:27:07;;;;;;;11.02;7.78;;;;;;;27.64;41.67;101188.22;4966481;28;20543;-81
2023/06/19 09:29:32;;;;;;;11.07;7.85;;;;;;;27.74;41.76;101190.84;4975384;28;20030;-81
2023/06/19 09:31:58;;;;;;;9.73;7.85;;;;;;;27.83;42.41;101178.97;4984623;28;20037;-81
2023/06/19 09:34:23;;;;;;;9.25;7.45;;;;;;;27.73;42.69;101186.44;4988160;28;20054;-82
2023/06/19 09:36:50;;;;;;;8.65;7.68;;;;;;;27.99;41.88;101196.38;4985489;28;20026;-81
2023/06/19 09:39:16;;;;;;;9.27;7.65;;;;;;;28.41;40.75;101191.69;4982066;28;20022;-81
2023/06/19 09:41:44;;;;;;;9.23;6.60;;;;;;;28.69;39.74;101196.78;4987237;28;20039;-82
2023/06/19 09:44:12;;;;;;;10.80;7.80;;;;;;;28.44;38.47;101204.94;4985062;28;20109;-81
2023/06/19 09:46:44;;;;;;;9.13;7.75;;;;;;;28.34;39.47;101201.53;4976953;28;20031;-81
2023/06/19 09:49:11;;;;;;;9.95;7.63;;;;;;;28.50;39.29;101195.25;4983593;28;20246;-81
2023/06/19 09:51:40;;;;;;;9.18;7.60;;;;;;;28.72;37.96;101199.16;4980413;28;20049;-81
2023/06/19 09:54:07;;;;;;;13.48;7.10;;;;;;;29.21;38.94;101193.66;4986930;28;20482;-81
2023/06/19 09:56:33;;;;;;;11.98;7.90;;;;;;;29.46;37.46;101200.69;4983219;28;20513;-81
2023/06/19 09:59:00;;;;;;;11.90;8.05;;;;;;;29.14;36.79;101198.94;4983439;28;20033;-81
2023/06/19 10:01:27;;;;;;;9.65;7.57;;;;;;;28.83;37.46;101212.41;4985638;28;20029;-82
2023/06/19 10:04:02;;;;;;;12.20;7.82;;;;;;;28.60;38.22;101209.53;4987210;28;20037;-81
2023/06/19 10:06:29;;;;;;;10.65;7.28;;;;;;;28.82;37.42;101209.84;4984455;28;20042;-81
2023/06/19 10:08:55;;;;;;;11.02;7.60;;;;;;;28.80;36.32;101220.06;4986842;28;20034;-81
2023/06/19 10:11:20;;;;;;;9.65;7.30;;;;;;;28.84;36.85;101197.78;4964704;28;20038;-81
2023/06/19 10:13:45;;;;;;;13.77;8.93;;;;;;;28.94;36.55;101201.16;4980494;28;20124;-81
2023/06/19 10:16:22;;;;;;;11.13;8.37;;;;;;;29.04;37.32;101208.31;4980025;28;20031;-81
2023/06/19 10:18:48;;;;;;;10.18;7.97;;;;;;;29.35;36.82;101212.00;4986484;28;20649;-81
2023/06/19 10:21:17;;;;;;;8.25;6.72;;;;;;;29.80;36.13;101210.50;4977656;28;20116;-81
2023/06/19 10:23:42;;;;;;;8.05;7.25;;;;;;;30.05;34.79;101211.19;4986962;28;20026;-81
2023/06/19 10:26:08;;;;;;;10.48;7.05;;;;;;;29.91;34.73;101207.34;4989512;28;20026;-81
2023/06/19 10:28:33;;;;;;;8.52;7.50;;;;;;;29.67;35.47;101211.06;4988345;28;20037;-81
2023/06/19 10:31:04;;;;;;;8.75;7.88;;;;;;;29.86;35.20;101207.03;4984856;28;20026;-81
2023/06/19 10:33:32;;;;;;;12.23;8.10;;;;;;;29.68;35.37;101211.91;4980133;28;20343;-81
2023/06/19 10:36:02;;;;;;;11.75;7.68;;;;;;;29.83;35.04;101217.44;4984423;28;20032;-81
2023/06/19 10:38:29;;;;;;;9.43;7.38;;;;;;;30.29;33.92;101215.66;4978042;28;20037;-89
2023/06/19 10:40:54;;;;;;;9.25;7.20;;;;;;;29.87;34.71;101219.63;4985608;28;20026;-81
2023/06/19 10:43:24;;;;;;;10.07;7.82;;;;;;;29.39;34.70;101213.34;4981239;28;20038;-80
2023/06/19 10:45:51;;;;;;;10.05;7.60;;;;;;;29.57;34.43;101220.47;4978638;28;20126;-81
2023/06/19 10:48:20;;;;;;;7.70;6.72;;;;;;;29.27;34.58;101214.75;4984222;28;20113;-81
2023/06/19 10:50:47;;;;;;;8.00;6.60;;;;;;;28.96;34.86;101207.34;4980833;28;20042;-82
2023/06/19 10:53:31;;;;;;;8.15;7.05;;;;;;;29.05;35.69;101210.03;4982442;28;20034;-82
2023/06/19 10:56:01;;;;;;;8.27;6.93;;;;;;;29.04;35.53;101195.56;4981406;28;20031;-80
2023/06/19 10:58:28;;;;;;;11.00;7.82;;;;;;;28.55;36.20;101213.81;4981186;28;20569;-81
2023/06/19 11:00:54;;;;;;;9.32;7.40;;;;;;;28.28;36.38;101206.78;4982205;28;20022;-81
2023/06/19 11:03:20;;;;;;;10.60;7.57;;;;;;;28.19;38.02;101203.19;4983228;28;20033;-80
2023/06/19 11:05:47;;;;;;;11.15;8.07;;;;;;;28.48;36.87;101203.56;4977604;28;20094;-81
2023/06/19 11:08:20;;;;;;;9.05;7.28;;;;;;;28.76;37.05;101203.22;4979838;28;20482;-81
2023/06/19 11:10:45;;;;;;;8.50;7.57;;;;;;;29.09;35.25;101201.34;4979502;28;20042;-81
2023/06/19 11:13:16;;;;;;;9.95;7.68;;;;;;;29.44;35.32;101197.31;4982962;28;20544;-81
2023/06/19 11:15:41;;;;;;;7.90;6.82;;;;;;;29.80;34.28;101202.31;4976376;28;20042;-81
2023/06/19 11:18:07;;;;;;;9.07;7.35;;;;;;;30.14;33.33;101199.22;4978208;28;21551;-81